sensor_id;sensor_type;location;lat;lon;timestamp;pressure;altitude;pressure_sealevel;temperature;humidity
76050;BME280;64967;50.234;19.224;2024-01-15T16:22:04;75006.84;;;-143.90;100.00
76050;BME280;64967;50.234;19.224;2024-01-15T16:24:51;75010.97;;;-143.90;100.00
76050;BME280;64967;50.234;19.224;2024-01-15T16:27:21;75015.09;;;-143.90;100.00
76050;BME280;64967;50.234;19.224;2024-01-15T16:29:48;75010.97;;;-143.90;100.00
76050;BME280;64967;50.234;19.224;2024-01-15T16:32:15;75006.84;;;-143.90;100.00
76050;BME280;64967;50.234;19.224;2024-01-15T16:34:41;75013.03;;;-143.90;100.00
76050;BME280;64967;50.234;19.224;2024-01-15T16:37:08;75019.22;;;-143.90;100.00
76050;BME280;64967;50.234;19.224;2024-01-15T16:39:36;75008.91;;;-143.90;100.00
76050;BME280;64967;50.234;19.224;2024-01-15T16:42:03;75006.84;;;-143.90;100.00
76050;BME280;64967;50.234;19.224;2024-01-15T16:44:30;75006.84;;;-143.90;100.00
76050;BME280;64967;50.234;19.224;2024-01-15T16:46:57;75004.75;;;-143.90;100.00
76050;BME280;64967;50.234;19.224;2024-01-15T16:49:31;75006.84;;;-143.90;100.00
76050;BME280;64967;50.234;19.224;2024-01-15T16:51:57;75004.75;;;-143.90;100.00
76050;BME280;64967;50.234;19.224;2024-01-15T16:54:24;75004.75;;;-143.90;100.00
76050;BME280;64967;50.234;19.224;2024-01-15T16:56:51;75006.84;;;-143.90;100.00
76050;BME280;64967;50.234;19.224;2024-01-15T16:59:17;75010.97;;;-143.90;100.00
76050;BME280;64967;50.234;19.224;2024-01-15T17:01:44;75017.16;;;-143.90;100.00
76050;BME280;64967;50.234;19.224;2024-01-15T17:04:11;75015.09;;;-143.90;100.00
76050;BME280;64967;50.234;19.224;2024-01-15T17:06:37;75023.38;;;-143.90;100.00
76050;BME280;64967;50.234;19.224;2024-01-15T17:09:06;75015.09;;;-143.90;100.00
76050;BME280;64967;50.234;19.224;2024-01-15T17:11:34;75019.22;;;-143.90;100.00
76050;BME280;64967;50.234;19.224;2024-01-15T17:14:00;75021.31;;;-143.90;100.00
76050;BME280;64967;50.234;19.224;2024-01-15T17:16:27;75033.72;;;-143.90;100.00
76050;BME280;64967;50.234;19.224;2024-01-15T17:18:54;75021.31;;;-143.90;100.00
76050;BME280;64967;50.234;19.224;2024-01-15T17:21:23;75031.63;;;-143.90;100.00
76050;BME280;64967;50.234;19.224;2024-01-15T17:23:50;75035.78;;;-143.90;100.00
76050;BME280;64967;50.234;19.224;2024-01-15T17:26:20;75037.84;;;-143.90;100.00
76050;BME280;64967;50.234;19.224;2024-01-15T17:28:48;75039.91;;;-143.90;100.00
76050;BME280;64967;50.234;19.224;2024-01-15T17:31:15;75046.09;;;-143.90;100.00
76050;BME280;64967;50.234;19.224;2024-01-15T17:33:44;75058.50;;;-143.90;100.00
76050;BME280;64967;50.234;19.224;2024-01-15T17:36:12;75066.78;;;-143.90;100.00
76050;BME280;64967;50.234;19.224;2024-01-15T17:38:39;75070.91;;;-143.90;100.00
76050;BME280;64967;50.234;19.224;2024-01-15T17:41:05;75066.78;;;-143.90;100.00
76050;BME280;64967;50.234;19.224;2024-01-15T17:43:32;75068.84;;;-143.90;100.00
76050;BME280;64967;50.234;19.224;2024-01-15T17:46:05;75075.06;;;-143.90;100.00
76050;BME280;64967;50.234;19.224;2024-01-15T17:48:32;75077.13;;;-143.90;100.00
76050;BME280;64967;50.234;19.224;2024-01-15T17:51:00;75085.38;;;-143.90;100.00
76050;BME280;64967;50.234;19.224;2024-01-15T17:53:27;75093.66;;;-143.90;100.00
76050;BME280;64967;50.234;19.224;2024-01-15T17:55:57;75091.59;;;-143.90;100.00
76050;BME280;64967;50.234;19.224;2024-01-15T17:58:24;75089.53;;;-143.90;100.00
76050;BME280;64967;50.234;19.224;2024-01-15T18:00:51;75099.88;;;-143.90;100.00
76050;BME280;64967;50.234;19.224;2024-01-15T18:03:20;75099.88;;;-143.90;100.00
76050;BME280;64967;50.234;19.224;2024-01-15T18:05:47;75093.66;;;-143.90;100.00
76050;BME280;64967;50.234;19.224;2024-01-15T18:08:13;75093.66;;;-143.90;100.00
76050;BME280;64967;50.234;19.224;2024-01-15T18:10:42;75095.72;;;-143.90;100.00
76050;BME280;64967;50.234;19.224;2024-01-15T18:13:08;75101.94;;;-143.90;100.00
76050;BME280;64967;50.234;19.224;2024-01-15T18:15:37;75122.59;;;-143.90;100.00
76050;BME280;64967;50.234;19.224;2024-01-15T18:18:06;75118.47;;;-143.90;100.00
76050;BME280;64967;50.234;19.224;2024-01-15T18:20:33;75118.47;;;-143.90;100.00
76050;BME280;64967;50.234;19.224;2024-01-15T18:23:03;75118.47;;;-143.90;100.00
76050;BME280;64967;50.234;19.224;2024-01-15T18:25:30;75108.13;;;-143.90;100.00
76050;BME280;64967;50.234;19.224;2024-01-15T18:27:57;75122.59;;;-143.90;100.00
76050;BME280;64967;50.234;19.224;2024-01-15T18:30:23;75122.59;;;-143.90;100.00
76050;BME280;64967;50.234;19.224;2024-01-15T18:32:50;75126.75;;;-143.90;100.00
76050;BME280;64967;50.234;19.224;2024-01-15T18:35:17;75118.47;;;-143.90;100.00
76050;BME280;64967;50.234;19.224;2024-01-15T18:37:45;75106.06;;;-143.90;100.00
76050;BME280;64967;50.234;19.224;2024-01-15T18:40:12;75110.19;;;-143.90;100.00
76050;BME280;64967;50.234;19.224;2024-01-15T19:13:28;75128.81;;;-143.90;100.00
76050;BME280;64967;50.234;19.224;2024-01-15T19:16:18;75118.47;;;-143.90;100.00
76050;BME280;64967;50.234;19.224;2024-01-15T19:18:49;75122.59;;;-143.90;100.00
76050;BME280;64967;50.234;19.224;2024-01-15T19:21:17;75122.59;;;-143.90;100.00
76050;BME280;64967;50.234;19.224;2024-01-15T19:23:48;75120.53;;;-143.90;100.00
76050;BME280;64967;50.234;19.224;2024-01-15T19:26:18;75118.47;;;-143.90;100.00
76050;BME280;64967;50.234;19.224;2024-01-15T19:28:49;75122.59;;;-143.90;100.00
76050;BME280;64967;50.234;19.224;2024-01-15T19:31:21;75128.81;;;-143.90;100.00
76050;BME280;64967;50.234;19.224;2024-01-15T19:33:48;75132.94;;;-143.90;100.00
76050;BME280;64967;50.234;19.224;2024-01-15T19:36:22;75137.06;;;-143.90;100.00
76050;BME280;64967;50.234;19.224;2024-01-15T19:38:52;75135.00;;;-143.90;100.00
76050;BME280;64967;50.234;19.224;2024-01-15T19:41:22;75126.75;;;-143.90;100.00
76050;BME280;64967;50.234;19.224;2024-01-15T19:43:51;75130.88;;;-143.90;100.00
76050;BME280;64967;50.234;19.224;2024-01-15T19:46:21;75130.88;;;-143.90;100.00
76050;BME280;64967;50.234;19.224;2024-01-15T19:48:49;75122.59;;;-143.90;100.00
76050;BME280;64967;50.234;19.224;2024-01-15T19:51:18;75126.75;;;-143.90;100.00
76050;BME280;64967;50.234;19.224;2024-01-15T19:53:45;75139.16;;;-143.90;100.00
76050;BME280;64967;50.234;19.224;2024-01-15T19:56:14;75126.75;;;-143.90;100.00
76050;BME280;64967;50.234;19.224;2024-01-15T19:58:44;75141.22;;;-143.90;100.00
76050;BME280;64967;50.234;19.224;2024-01-15T20:01:11;75149.47;;;-143.90;100.00
76050;BME280;64967;50.234;19.224;2024-01-15T20:03:39;75155.69;;;-143.90;100.00
76050;BME280;64967;50.234;19.224;2024-01-15T20:06:13;75172.22;;;-143.90;100.00
76050;BME280;64967;50.234;19.224;2024-01-15T20:08:42;75180.50;;;-143.90;100.00
76050;BME280;64967;50.234;19.224;2024-01-15T20:11:10;75201.16;;;-143.90;100.00
76050;BME280;64967;50.234;19.224;2024-01-15T20:13:40;75201.16;;;-143.90;100.00
76050;BME280;64967;50.234;19.224;2024-01-15T20:16:12;75205.28;;;-143.90;100.00
76050;BME280;64967;50.234;19.224;2024-01-15T20:18:42;75215.63;;;-143.90;100.00
76050;BME280;64967;50.234;19.224;2024-01-15T20:21:10;75225.97;;;-143.90;100.00
76050;BME280;64967;50.234;19.224;2024-01-15T20:23:37;75230.09;;;-143.90;100.00
76050;BME280;64967;50.234;19.224;2024-01-15T20:26:16;75232.19;;;-143.90;100.00
76050;BME280;64967;50.234;19.224;2024-01-15T20:28:43;75230.09;;;-143.90;100.00
76050;BME280;64967;50.234;19.224;2024-01-15T20:31:13;75236.31;;;-143.90;100.00
76050;BME280;64967;50.234;19.224;2024-01-15T20:33:40;75234.25;;;-143.90;100.00
76050;BME280;64967;50.234;19.224;2024-01-15T20:36:08;75246.66;;;-143.90;100.00
76050;BME280;64967;50.234;19.224;2024-01-15T20:38:39;75256.97;;;-143.90;100.00
76050;BME280;64967;50.234;19.224;2024-01-15T20:41:06;75263.19;;;-143.90;100.00
76050;BME280;64967;50.234;19.224;2024-01-15T20:43:33;75259.06;;;-143.90;100.00
76050;BME280;64967;50.234;19.224;2024-01-15T20:46:01;75261.13;;;-143.90;100.00
76050;BME280;64967;50.234;19.224;2024-01-15T20:48:28;75271.47;;;-143.90;100.00
76050;BME280;64967;50.234;19.224;2024-01-15T20:50:55;75277.66;;;-143.90;100.00
76050;BME280;64967;50.234;19.224;2024-01-15T20:53:24;75283.84;;;-143.90;100.00
76050;BME280;64967;50.234;19.224;2024-01-15T20:55:54;75281.78;;;-143.90;100.00
76050;BME280;64967;50.234;19.224;2024-01-15T20:58:22;75283.84;;;-143.90;100.00
76050;BME280;64967;50.234;19.224;2024-01-15T21:00:51;75283.84;;;-143.90;100.00
76050;BME280;64967;50.234;19.224;2024-01-15T21:03:18;75288.00;;;-143.90;100.00
76050;BME280;64967;50.234;19.224;2024-01-15T21:05:45;75298.34;;;-143.90;100.00
76050;BME280;64967;50.234;19.224;2024-01-15T21:08:14;75288.00;;;-143.90;100.00
76050;BME280;64967;50.234;19.224;2024-01-15T21:10:44;75298.34;;;-143.90;100.00
76050;BME280;64967;50.234;19.224;2024-01-15T21:13:11;75296.25;;;-143.90;100.00
76050;BME280;64967;50.234;19.224;2024-01-15T21:15:38;75306.59;;;-143.90;100.00
76050;BME280;64967;50.234;19.224;2024-01-15T21:18:05;75296.25;;;-143.90;100.00
76050;BME280;64967;50.234;19.224;2024-01-15T21:20:32;75290.06;;;-143.90;100.00
76050;BME280;64967;50.234;19.224;2024-01-15T21:23:00;75288.00;;;-143.90;100.00
76050;BME280;64967;50.234;19.224;2024-01-15T21:25:27;75279.72;;;-143.90;100.00
76050;BME280;64967;50.234;19.224;2024-01-15T21:27:54;75279.72;;;-143.90;100.00
76050;BME280;64967;50.234;19.224;2024-01-15T21:30:21;75273.53;;;-143.90;100.00
76050;BME280;64967;50.234;19.224;2024-01-15T21:32:48;75273.53;;;-143.90;100.00
76050;BME280;64967;50.234;19.224;2024-01-15T21:35:15;75263.19;;;-143.90;100.00
76050;BME280;64967;50.234;19.224;2024-01-15T21:37:44;75273.53;;;-143.90;100.00
76050;BME280;64967;50.234;19.224;2024-01-15T21:40:11;75275.59;;;-143.90;100.00
76050;BME280;64967;50.234;19.224;2024-01-15T21:42:40;75279.72;;;-143.90;100.00
76050;BME280;64967;50.234;19.224;2024-01-15T21:45:08;75267.31;;;-143.90;100.00
76050;BME280;64967;50.234;19.224;2024-01-15T21:47:37;75269.38;;;-143.90;100.00
76050;BME280;64967;50.234;19.224;2024-01-15T21:50:05;75275.59;;;-143.90;100.00
76050;BME280;64967;50.234;19.224;2024-01-15T21:52:32;75275.59;;;-143.90;100.00
76050;BME280;64967;50.234;19.224;2024-01-15T21:54:59;75277.66;;;-143.90;100.00
76050;BME280;64967;50.234;19.224;2024-01-15T21:57:28;75283.84;;;-143.90;100.00
76050;BME280;64967;50.234;19.224;2024-01-15T21:59:56;75283.84;;;-143.90;100.00
76050;BME280;64967;50.234;19.224;2024-01-15T22:02:32;75288.00;;;-143.90;100.00
76050;BME280;64967;50.234;19.224;2024-01-15T22:05:03;75290.06;;;-143.90;100.00
76050;BME280;64967;50.234;19.224;2024-01-15T22:07:30;75304.53;;;-143.90;100.00
76050;BME280;64967;50.234;19.224;2024-01-15T22:09:56;75312.81;;;-143.90;100.00
76050;BME280;64967;50.234;19.224;2024-01-15T22:12:23;75321.06;;;-143.90;100.00
76050;BME280;64967;50.234;19.224;2024-01-15T22:14:50;75331.41;;;-143.90;100.00
76050;BME280;64967;50.234;19.224;2024-01-15T22:17:17;75327.28;;;-143.90;100.00
76050;BME280;64967;50.234;19.224;2024-01-15T22:19:45;75325.22;;;-143.90;100.00
76050;BME280;64967;50.234;19.224;2024-01-15T22:22:20;75335.53;;;-143.90;100.00
76050;BME280;64967;50.234;19.224;2024-01-15T22:24:47;75339.69;;;-143.90;100.00
76050;BME280;64967;50.234;19.224;2024-01-15T22:27:14;75325.22;;;-143.90;100.00
76050;BME280;64967;50.234;19.224;2024-01-15T22:29:41;75329.34;;;-143.90;100.00
76050;BME280;64967;50.234;19.224;2024-01-15T22:32:08;75321.06;;;-143.90;100.00
76050;BME280;64967;50.234;19.224;2024-01-15T22:34:35;75321.06;;;-143.90;100.00
76050;BME280;64967;50.234;19.224;2024-01-15T22:37:02;75329.34;;;-143.90;100.00
76050;BME280;64967;50.234;19.224;2024-01-15T22:39:30;75333.47;;;-143.90;100.00
76050;BME280;64967;50.234;19.224;2024-01-15T22:41:56;75350.03;;;-143.90;100.00
76050;BME280;64967;50.234;19.224;2024-01-15T22:44:23;75337.63;;;-143.90;100.00
76050;BME280;64967;50.234;19.224;2024-01-15T22:46:50;75345.88;;;-143.90;100.00
76050;BME280;64967;50.234;19.224;2024-01-15T22:49:19;75350.03;;;-143.90;100.00
76050;BME280;64967;50.234;19.224;2024-01-15T22:51:47;75362.44;;;-143.90;100.00
76050;BME280;64967;50.234;19.224;2024-01-15T22:54:14;75370.69;;;-143.90;100.00
76050;BME280;64967;50.234;19.224;2024-01-15T22:56:41;75362.44;;;-143.90;100.00
76050;BME280;64967;50.234;19.224;2024-01-15T22:59:08;75374.84;;;-143.90;100.00
76050;BME280;64967;50.234;19.224;2024-01-15T23:01:34;75374.84;;;-143.90;100.00
76050;BME280;64967;50.234;19.224;2024-01-15T23:04:04;75383.09;;;-143.90;100.00
76050;BME280;64967;50.234;19.224;2024-01-15T23:06:31;75397.56;;;-143.90;100.00
76050;BME280;64967;50.234;19.224;2024-01-15T23:08:58;75403.78;;;-143.90;100.00
76050;BME280;64967;50.234;19.224;2024-01-15T23:11:24;75407.91;;;-143.90;100.00
76050;BME280;64967;50.234;19.224;2024-01-15T23:13:51;75407.91;;;-143.90;100.00
76050;BME280;64967;50.234;19.224;2024-01-15T23:16:19;75405.84;;;-143.90;100.00
76050;BME280;64967;50.234;19.224;2024-01-15T23:18:48;75399.63;;;-143.90;100.00
76050;BME280;64967;50.234;19.224;2024-01-15T23:21:15;75407.91;;;-143.90;100.00
76050;BME280;64967;50.234;19.224;2024-01-15T23:23:43;75409.97;;;-143.90;100.00
76050;BME280;64967;50.234;19.224;2024-01-15T23:26:10;75407.91;;;-143.90;100.00
76050;BME280;64967;50.234;19.224;2024-01-15T23:28:40;75407.91;;;-143.90;100.00
76050;BME280;64967;50.234;19.224;2024-01-15T23:31:07;75420.31;;;-143.90;100.00
76050;BME280;64967;50.234;19.224;2024-01-15T23:33:39;75409.97;;;-143.90;100.00
76050;BME280;64967;50.234;19.224;2024-01-15T23:36:07;75416.19;;;-143.90;100.00
76050;BME280;64967;50.234;19.224;2024-01-15T23:38:38;75407.91;;;-143.90;100.00
76050;BME280;64967;50.234;19.224;2024-01-15T23:41:20;75412.03;;;-143.90;100.00
76050;BME280;64967;50.234;19.224;2024-01-15T23:43:47;75401.72;;;-143.90;100.00
76050;BME280;64967;50.234;19.224;2024-01-15T23:46:15;75407.91;;;-143.90;100.00
76050;BME280;64967;50.234;19.224;2024-01-15T23:48:48;75409.97;;;-143.90;100.00
76050;BME280;64967;50.234;19.224;2024-01-15T23:51:15;75416.19;;;-143.90;100.00
76050;BME280;64967;50.234;19.224;2024-01-15T23:53:42;75409.97;;;-143.90;100.00
76050;BME280;64967;50.234;19.224;2024-01-15T23:56:11;75420.31;;;-143.90;100.00
76050;BME280;64967;50.234;19.224;2024-01-15T23:58:40;75428.59;;;-143.90;100.00
